• Join FlightAware (Why Join?)
  • Login
  • US Flag 
12:19AM EDT


 

Airport Tracker/Info


-or-


 

Live Flight TrackerFlight Track Log ✈ UAL6057 ✈ 23-Apr-2013 ✈ KFSD - KORD

Flight Track Log - Related Links

Times and Time Zones

All times are in EDT time to prevent confusion due to time zone crossing. See the UAL6057 flight status page for this flight to view local times or setup timezone preferences in your user account.

Time Position Orientation Groundspeed Altitude Reporting Facility
EDT Latitude Longitude Course Direction KTS MPH feet Rate Location/Type
08:49PM 43.6033 -96.7356 76° East 152 175 2,800  Level Minneapolis Center
08:50PM 43.6208 -96.6353 76° East 219 252 6,200 3,180 Climbing Minneapolis Center
08:51PM 43.6092 -96.5083 97° East 257 296 10,100 2,400 Climbing Minneapolis Center
08:52PM 43.5928 -96.3944 101° East 282 325 11,300 1,320 Climbing Minneapolis Center
08:53PM 43.5722 -96.2553 101° East 329 379 12,900 1,680 Climbing Minneapolis Center
08:54PM 43.5506 -96.1108 102° East 377 434 14,800 1,680 Climbing Minneapolis Center
08:55PM 43.5275 -95.9653 102° East 389 448 16,400 1,440 Climbing Minneapolis Center
08:56PM 43.5008 -95.7825 101° East 407 468 17,800 1,200 Climbing Minneapolis Center
08:57PM 43.4764 -95.6281 102° East 415 478 18,900 1,080 Climbing Minneapolis Center
08:58PM 43.4514 -95.4658 102° East 429 494 20,100 1,380 Climbing Minneapolis Center
08:59PM 43.4258 -95.3025 102° East 436 502 22,100 2,520 Climbing Minneapolis Center
09:00PM 43.3908 -95.0861 102° East 421 484 25,900 2,880 Climbing Minneapolis Center
09:01PM 43.3667 -94.9381 103° East 404 465 28,100 1,860 Climbing Minneapolis Center
09:02PM 43.3419 -94.7869 103° East 404 465 29,800 1,680 Climbing Minneapolis Center
09:03PM 43.3183 -94.6364 102° East 406 467 31,600 1,440 Climbing Minneapolis Center
09:04PM 43.2981 -94.5142 103° East 409 471 32,800 660 Climbing Minneapolis Center
09:05PM 43.2592 -94.2881 103° East 432 497 33,000 60 Climbing Minneapolis Center
09:07PM 43.2286 -94.1050 103° East 484 557 33,000  Level Minneapolis Center
09:08PM 43.1906 -93.8767 103° East 511 588 33,000  Level Minneapolis Center
09:09PM 43.1558 -93.6850 104° East 519 597 33,000  Level Minneapolis Center
09:10PM 43.1233 -93.4914 103° East 523 602 33,000  Level Minneapolis Center
09:11PM 43.0928 -93.3003 102° East 521 600 33,000  Level Minneapolis Center
09:12PM 43.0761 -93.0575 95° East 535 616 33,000  Level Minneapolis Center
09:13PM 43.0622 -92.8544 95° East 539 620 33,000  Level Minneapolis Center
09:14PM 43.0481 -92.6525 95° East 540 621 33,000 -540 Level Minneapolis Center
09:15PM 43.0344 -92.4500 95° East 538 619 31,900 -1,020 Descending Minneapolis Center
09:16PM 43.0186 -92.2489 96° East 537 618 31,000 -480 Descending Minneapolis Center
09:17PM 43.0014 -92.0008 95° East 546 628 31,000  Level Minneapolis Center
09:18PM 42.9850 -91.7933 96° East 547 629 31,000  Level Minneapolis Center
09:19PM 42.9683 -91.5844 96° East 547 629 31,000  Level Minneapolis Center
09:20PM 42.9517 -91.3772 96° East 544 626 31,000  Level Minneapolis Center
09:21PM 42.9344 -91.1733 97° East 540 621 31,000  Level Minneapolis Center
09:22PM 42.9139 -90.9306 97° East 539 620 31,000 -600 Level Minneapolis Center
09:23PM 42.9011 -90.7703 96° East 539 620 30,000 -1,740 Descending Chicago Center
09:24PM 42.8831 -90.5742 97° East 528 608 28,100 -1,920 Descending Chicago Center
09:25PM 42.8664 -90.3811 97° East 518 596 26,100 -1,680 Descending Chicago Center
09:26PM 42.8486 -90.1892 97° East 514 592 24,700 -1,020 Descending Chicago Center
09:27PM 42.8164 -90.0103 104° East 494 568 24,000 -360 Descending Chicago Center
09:28PM 42.7628 -89.8169 111° Southeast 493 567 24,000 -300 Level Chicago Center
09:29PM 42.7122 -89.6436 112° Southeast 493 567 23,500 -1,200 Descending Chicago Center
09:30PM 42.6575 -89.4464 111° Southeast 483 556 21,600 -1,620 Descending Chicago Center
09:31PM 42.6097 -89.2853 112° Southeast 466 536 20,200 -1,440 Descending Chicago Center
09:32PM 42.5647 -89.1272 111° Southeast 453 521 18,700 -1,320 Descending Chicago Center
09:33PM 42.5183 -88.9731 112° Southeast 445 512 17,500 -780 Descending Chicago Center
09:34PM 42.4728 -88.8239 112° Southeast 432 497 17,100 -1,740 Descending Chicago Center
09:35PM 42.4292 -88.6800 112° Southeast 418 481 14,000 -3,240 Descending Chicago Center
09:37PM 42.3800 -88.5172 112° Southeast 401 461 10,500 -2,040 Descending Chicago Center
09:38PM 42.3461 -88.4003 111° Southeast 346 398 9,800 -1,260 Descending Chicago Center
09:39PM 42.2981 -88.3192 129° Southeast 296 341 8,000 -1,380 Descending Chicago Center
09:40PM 42.2531 -88.2411 128° Southeast 269 310 7,000 -540 Descending Chicago Center
09:41PM 42.2169 -88.1850 131° Southeast 213 245 7,000  Level Chicago Center
09:42PM 42.1772 -88.1253 132° Southeast 212 244 7,000  Level Chicago Center
09:43PM 42.1267 -88.0689 140° Southeast 201 231 7,000  Level Chicago Center
09:44PM 42.1000 -88.0167 125° Southeast 215 247 7,000  Level Chicago TRACON
09:45PM 42.1000 -87.9167 90° East 220 253 7,000  Level Chicago TRACON
09:46PM 42.1000 -87.8333 90° East 225 259 7,000  Level Chicago TRACON
09:47PM 42.0833 -87.7667 109° East 218 251 7,000 -480 Level Chicago TRACON
09:48PM 42.0833 -87.6833 90° East 209 241 6,200 -1,020 Descending Chicago TRACON
09:49PM 42.0833 -87.6000 90° East 204 235 5,000 -1,080 Descending Chicago TRACON
09:50PM 42.0833 -87.5333 90° East 205 236 4,100 -540 Descending Chicago TRACON
09:51PM 42.0833 -87.4500 90° East 198 228 4,000 -60 Descending Chicago TRACON
09:52PM 42.0667 -87.4000 114° Southeast 220 253 4,000  Level Chicago TRACON
09:53PM 42.0167 -87.3833 166° South 206 237 4,000  Level Chicago TRACON
09:54PM 41.9833 -87.4167 217° Southwest 192 221 4,000  Level Chicago TRACON
09:55PM 41.9833 -87.4667 270° West 165 190 4,000  Level Chicago TRACON
09:56PM 41.9833 -87.5333 270° West 173 199 4,000  Level Chicago TRACON
09:57PM 41.9833 -87.6000 270° West 169 194 4,000  Level Chicago TRACON
09:58PM 41.9833 -87.6500 270° West 175 201 4,000 -420 Level Chicago TRACON
09:59PM 41.9833 -87.7167 270° West 168 193 3,300 -900 Descending Chicago TRACON
10:00PM 41.9833 -87.7833 270° West 182 209 2,300 -960 Descending Chicago TRACON
10:01PM 41.9833 -87.8333 270° West 140 161 1,400 -900 Descending Chicago TRACON